createdAt,value
2022-09-04T00:00:12.592Z,1.20
2022-09-04T00:02:56.611Z,1.05
2022-09-04T00:05:35.406Z,1.00
2022-09-04T00:08:32.932Z,1.40
2022-09-04T00:11:36.550Z,1.23
2022-09-04T00:14:22.146Z,1.20
2022-09-04T00:17:05.030Z,1.20
2022-09-04T00:19:57.403Z,1.03
2022-09-04T00:22:55.791Z,1.00
2022-09-04T00:25:25.710Z,1.08
2022-09-04T00:28:29.606Z,1.05
2022-09-04T00:31:14.633Z,1.88
2022-09-04T00:34:08.552Z,1.45
2022-09-04T00:36:40.413Z,1.33
2022-09-04T00:39:16.492Z,0.98
2022-09-04T00:42:18.446Z,1.20
2022-09-04T00:45:00.576Z,1.30
2022-09-04T00:47:49.939Z,1.40
2022-09-04T00:50:38.471Z,1.55
2022-09-04T00:53:31.662Z,1.17
2022-09-04T00:56:01.557Z,1.63
2022-09-04T00:58:43.788Z,1.67
2022-09-04T01:01:16.399Z,2.50
2022-09-04T01:04:01.731Z,2.90
2022-09-04T01:06:44.046Z,2.60
2022-09-04T01:09:23.647Z,2.80
2022-09-04T01:11:59.619Z,2.67
2022-09-04T01:14:49.947Z,2.60
2022-09-04T01:18:07.780Z,2.45
2022-09-04T01:21:01.979Z,2.38
2022-09-04T01:26:24.231Z,2.65
2022-09-04T01:29:34.978Z,2.30
2022-09-04T01:32:16.771Z,2.35
2022-09-04T01:35:26.613Z,2.55
2022-09-04T01:37:59.919Z,2.10
2022-09-04T01:40:36.500Z,2.10
2022-09-04T01:43:13.348Z,2.30
2022-09-04T01:46:10.691Z,2.50
2022-09-04T01:49:01.608Z,2.70
2022-09-04T01:51:49.483Z,2.22
2022-09-04T01:54:43.517Z,2.03
2022-09-04T02:00:06.331Z,1.70
2022-09-04T02:02:42.447Z,1.88
2022-09-04T02:05:45.525Z,2.00
2022-09-04T02:08:57.179Z,1.83
2022-09-04T02:11:29.652Z,1.80
2022-09-04T02:14:09.853Z,1.92
2022-09-04T02:16:57.459Z,1.83
2022-09-04T02:19:57.401Z,1.77
2022-09-04T02:22:46.202Z,1.85
2022-09-04T02:25:24.457Z,1.77
2022-09-04T02:28:12.066Z,1.95
2022-09-04T02:30:54.274Z,1.80
2022-09-04T02:34:12.405Z,1.95
2022-09-04T02:37:18.850Z,1.63
2022-09-04T02:39:57.307Z,1.85
2022-09-04T02:42:33.440Z,2.42
2022-09-04T02:45:12.393Z,1.65
2022-09-04T02:48:11.168Z,1.70
2022-09-04T02:51:22.217Z,1.70
2022-09-04T02:53:57.193Z,1.80
2022-09-04T02:56:59.771Z,1.77
2022-09-04T02:59:52.215Z,1.65
2022-09-04T03:02:28.217Z,1.75
2022-09-04T03:05:25.644Z,1.52
2022-09-04T03:08:09.463Z,1.70
2022-09-04T03:13:32.433Z,1.77
2022-09-04T03:16:31.562Z,1.52
2022-09-04T03:19:01.468Z,1.98
2022-09-04T03:21:37.741Z,1.42
2022-09-04T03:24:33.503Z,1.60
2022-09-04T03:27:11.929Z,1.67
2022-09-04T03:30:09.175Z,1.48
2022-09-04T03:32:44.505Z,1.73
2022-09-04T03:35:20.716Z,1.70
2022-09-04T03:38:01.047Z,1.92
2022-09-04T03:40:42.828Z,1.70
2022-09-04T03:43:15.835Z,1.65
2022-09-04T03:46:11.603Z,1.92
2022-09-04T03:49:08.616Z,1.60
2022-09-04T03:52:10.720Z,1.85
2022-09-04T03:55:07.229Z,1.60
2022-09-04T03:57:49.271Z,2.10
2022-09-04T04:00:22.878Z,1.67
2022-09-04T04:03:37.634Z,1.75
2022-09-04T04:06:19.073Z,1.73
2022-09-04T04:09:12.954Z,1.85
2022-09-04T04:12:03.907Z,2.10
2022-09-04T04:15:02.107Z,1.73
2022-09-04T04:18:02.382Z,2.10
2022-09-04T04:20:58.298Z,1.70
2022-09-04T04:24:09.038Z,2.05
2022-09-04T04:27:05.477Z,1.98
2022-09-04T04:29:46.853Z,1.95
2022-09-04T04:32:38.485Z,1.77
2022-09-04T04:35:17.711Z,1.80
2022-09-04T04:37:54.617Z,1.73
2022-09-04T04:40:55.301Z,1.77
2022-09-04T04:43:33.030Z,1.80
2022-09-04T04:46:27.305Z,1.73
2022-09-04T04:49:33.415Z,2.08
2022-09-04T04:52:10.445Z,1.70
2022-09-04T04:54:52.513Z,2.00
2022-09-04T04:57:50.167Z,1.70
2022-09-04T05:00:30.637Z,1.33
2022-09-04T05:03:34.009Z,2.08
2022-09-04T05:06:22.385Z,1.50
2022-09-04T05:09:24.296Z,1.70
2022-09-04T05:12:21.318Z,2.03
2022-09-04T05:15:05.416Z,1.75
2022-09-04T05:18:23.260Z,1.48
2022-09-04T05:21:00.857Z,1.85
2022-09-04T05:23:39.836Z,1.80
2022-09-04T05:26:21.779Z,1.60
2022-09-04T05:29:31.823Z,1.60
2022-09-04T05:32:31.683Z,1.77
2022-09-04T05:35:13.925Z,1.50
2022-09-04T05:38:19.234Z,1.90
2022-09-04T05:41:03.720Z,1.55
2022-09-04T05:43:57.784Z,1.70
2022-09-04T05:49:22.498Z,1.73
2022-09-04T05:52:01.404Z,1.75
2022-09-04T05:55:02.975Z,1.98
2022-09-04T05:57:54.504Z,2.05
2022-09-04T06:00:24.740Z,2.00
2022-09-04T06:03:22.523Z,1.70
2022-09-04T06:06:33.523Z,1.80
2022-09-04T06:09:41.935Z,1.60
2022-09-04T06:12:21.744Z,1.48
2022-09-04T06:15:30.162Z,1.85
2022-09-04T06:18:26.129Z,1.85
2022-09-04T06:21:31.762Z,1.63
2022-09-04T06:24:24.815Z,1.65
2022-09-04T06:27:12.997Z,2.03
2022-09-04T06:30:12.713Z,1.40
2022-09-04T06:32:49.486Z,1.52
2022-09-04T06:35:48.159Z,1.55
2022-09-04T06:38:30.026Z,1.70
2022-09-04T06:41:26.923Z,1.50
2022-09-04T06:44:17.780Z,1.50
2022-09-04T06:46:54.399Z,1.60
2022-09-04T06:49:49.222Z,1.67
2022-09-04T06:52:46.635Z,1.67
2022-09-04T06:55:29.006Z,1.80
2022-09-04T06:58:38.239Z,2.08
2022-09-04T07:01:10.146Z,1.52
2022-09-04T07:04:18.432Z,1.60
2022-09-04T07:06:54.240Z,1.70
2022-09-04T07:09:36.203Z,1.50
2022-09-04T07:12:24.507Z,1.65
2022-09-04T07:15:41.855Z,1.90
2022-09-04T07:18:41.149Z,1.77
2022-09-04T07:21:49.771Z,1.60
2022-09-04T07:24:34.886Z,1.80
2022-09-04T07:27:46.398Z,1.83
2022-09-04T07:30:17.108Z,1.55
2022-09-04T07:33:04.562Z,1.77
2022-09-04T07:35:52.522Z,1.65
2022-09-04T07:39:01.025Z,1.70
2022-09-04T07:41:53.214Z,1.70
2022-09-04T07:44:40.805Z,1.73
2022-09-04T07:47:39.841Z,1.42
2022-09-04T07:50:14.400Z,1.58
2022-09-04T07:52:47.159Z,1.50
2022-09-04T07:55:29.354Z,1.75
2022-09-04T07:58:26.772Z,1.48
2022-09-04T08:01:18.666Z,1.35
2022-09-04T08:04:07.173Z,1.60
2022-09-04T08:06:44.647Z,1.65
2022-09-04T08:09:55.468Z,1.60
2022-09-04T08:12:37.852Z,1.60
2022-09-04T08:15:24.548Z,1.65
2022-09-04T08:18:13.148Z,1.70
2022-09-04T08:21:14.230Z,1.70
2022-09-04T08:24:04.144Z,2.20
2022-09-04T08:26:43.263Z,1.60
2022-09-04T08:29:32.512Z,1.38
2022-09-04T08:32:37.871Z,1.48
2022-09-04T08:35:14.081Z,1.55
2022-09-04T08:38:06.127Z,1.40
2022-09-04T08:41:08.058Z,1.35
2022-09-04T08:44:07.865Z,1.60
2022-09-04T08:47:02.807Z,1.67
2022-09-04T08:50:31.033Z,1.75
2022-09-04T08:53:37.823Z,1.90
2022-09-04T08:56:21.678Z,2.58
2022-09-04T08:59:15.728Z,1.60
2022-09-04T09:02:10.377Z,1.30
2022-09-04T09:05:11.224Z,1.98
2022-09-04T09:08:01.030Z,1.42
2022-09-04T09:10:58.900Z,1.70
2022-09-04T09:14:07.625Z,2.67
2022-09-04T09:17:05.646Z,1.50
2022-09-04T09:19:42.309Z,1.48
2022-09-04T09:22:23.699Z,1.50
2022-09-04T09:25:02.393Z,1.55
2022-09-04T09:28:09.405Z,1.40
2022-09-04T09:30:52.304Z,1.80
2022-09-04T09:33:28.891Z,1.58
2022-09-04T09:36:18.436Z,1.52
2022-09-04T09:39:07.494Z,1.90
2022-09-04T09:42:00.725Z,1.77
2022-09-04T09:44:42.921Z,1.40
2022-09-04T09:47:28.734Z,1.40
2022-09-04T09:50:01.719Z,1.33
2022-09-04T09:52:58.863Z,2.20
2022-09-04T09:55:43.831Z,1.30
2022-09-04T09:58:26.824Z,1.48
2022-09-04T10:01:22.924Z,1.35
2022-09-04T10:04:47.221Z,1.30
2022-09-04T10:07:41.149Z,1.75
2022-09-04T10:10:29.430Z,1.20
2022-09-04T10:13:23.865Z,1.50
2022-09-04T10:16:17.016Z,1.33
2022-09-04T10:18:58.287Z,1.80
2022-09-04T10:21:50.523Z,1.38
2022-09-04T10:24:44.416Z,1.40
2022-09-04T10:27:18.259Z,1.58
2022-09-04T10:30:08.955Z,1.75
2022-09-04T10:32:41.963Z,1.40
2022-09-04T10:35:29.406Z,1.50
2022-09-04T10:38:24.439Z,7.20
2022-09-04T10:41:24.602Z,26.67
2022-09-04T10:44:16.421Z,33.25
2022-09-04T10:47:06.492Z,32.67
2022-09-04T10:49:54.994Z,27.55
2022-09-04T10:52:37.417Z,23.38
2022-09-04T10:55:31.288Z,21.60
2022-09-04T10:58:04.373Z,22.00
2022-09-04T11:01:22.123Z,18.63
2022-09-04T11:04:14.400Z,18.15
2022-09-04T11:06:50.586Z,20.02
2022-09-04T11:09:29.613Z,18.02
2022-09-04T11:12:21.909Z,18.27
2022-09-04T11:14:51.858Z,17.77
2022-09-04T11:17:57.126Z,18.15
2022-09-04T11:20:58.051Z,17.33
2022-09-04T11:24:00.767Z,16.63
2022-09-04T11:26:37.421Z,15.48
2022-09-04T11:29:45.958Z,11.65
2022-09-04T11:32:22.677Z,9.85
2022-09-04T11:35:10.939Z,7.72
2022-09-04T11:38:00.308Z,6.50
2022-09-04T11:40:48.245Z,6.03
2022-09-04T11:43:24.851Z,5.80
2022-09-04T11:46:01.970Z,5.15
2022-09-04T11:48:46.610Z,5.07
2022-09-04T11:51:52.803Z,5.18
2022-09-04T11:54:34.544Z,5.55
2022-09-04T11:57:26.122Z,4.85
2022-09-04T12:00:12.488Z,4.75
2022-09-04T12:03:15.392Z,4.75
2022-09-04T12:06:06.900Z,4.43
2022-09-04T12:08:55.119Z,4.75
2022-09-04T12:12:02.085Z,4.53
2022-09-04T12:14:55.073Z,4.78
2022-09-04T12:20:17.752Z,4.85
2022-09-04T12:23:10.356Z,4.82
2022-09-04T12:25:47.824Z,5.05
2022-09-04T12:28:39.025Z,4.85
2022-09-04T12:31:39.699Z,5.38
2022-09-04T12:34:16.152Z,4.78
2022-09-04T12:37:12.440Z,4.97
2022-09-04T12:40:14.607Z,4.80
2022-09-04T12:42:47.359Z,4.65
2022-09-04T12:45:27.788Z,4.38
2022-09-04T12:48:06.652Z,4.00
2022-09-04T12:50:56.845Z,4.30
2022-09-04T12:54:01.185Z,3.80
2022-09-04T12:56:58.807Z,4.47
2022-09-04T12:59:49.946Z,3.60
2022-09-04T13:02:35.334Z,4.30
2022-09-04T13:05:52.833Z,3.80
2022-09-04T13:08:35.762Z,4.30
2022-09-04T13:11:19.379Z,4.07
2022-09-04T13:13:52.901Z,3.83
2022-09-04T13:19:16.499Z,3.45
2022-09-04T13:21:58.285Z,3.67
2022-09-04T13:25:12.880Z,4.00
2022-09-04T13:27:59.005Z,3.60
2022-09-04T13:30:29.529Z,3.72
2022-09-04T13:33:05.904Z,3.42
2022-09-04T13:35:44.951Z,3.53
2022-09-04T13:38:30.132Z,3.35
2022-09-04T13:41:22.294Z,3.78
2022-09-04T13:44:16.447Z,3.63
2022-09-04T13:46:52.510Z,3.53
2022-09-04T13:49:29.385Z,3.60
2022-09-04T13:52:08.514Z,3.20
2022-09-04T13:54:47.671Z,3.55
2022-09-04T13:57:22.164Z,3.17
2022-09-04T13:59:52.158Z,3.22
2022-09-04T14:02:25.573Z,3.20
2022-09-04T14:05:05.851Z,3.78
2022-09-04T14:07:44.876Z,3.33
2022-09-04T14:10:24.233Z,3.00
2022-09-04T14:13:20.385Z,3.35
2022-09-04T14:16:10.256Z,3.28
2022-09-04T14:18:49.557Z,3.15
2022-09-04T14:21:25.658Z,3.05
2022-09-04T14:24:02.022Z,3.15
2022-09-04T14:26:49.152Z,2.65
2022-09-04T14:29:24.361Z,3.25
2022-09-04T14:32:20.606Z,2.80
2022-09-04T14:35:21.200Z,2.95
2022-09-04T14:38:36.392Z,3.28
2022-09-04T14:41:14.465Z,3.10
2022-09-04T14:44:18.229Z,3.45
2022-09-04T14:47:00.404Z,3.00
2022-09-04T14:49:32.805Z,2.95
2022-09-04T14:52:13.222Z,2.65
2022-09-04T14:54:47.336Z,2.97
2022-09-04T14:57:26.576Z,3.00
2022-09-04T15:00:13.251Z,2.88
2022-09-04T15:03:03.482Z,3.08
2022-09-04T15:05:58.066Z,2.83
2022-09-04T15:08:40.349Z,2.90
2022-09-04T15:11:15.857Z,3.55
2022-09-04T15:13:56.825Z,4.30
2022-09-04T15:16:36.879Z,4.13
2022-09-04T15:19:28.953Z,5.05
2022-09-04T15:22:06.952Z,3.90
2022-09-04T15:24:57.532Z,4.25
2022-09-04T15:27:36.434Z,4.38
2022-09-04T15:30:09.981Z,3.85
2022-09-04T15:35:15.749Z,4.55
2022-09-04T15:37:49.841Z,5.83
2022-09-04T15:40:30.453Z,3.97
2022-09-04T15:43:18.706Z,4.07
2022-09-04T15:45:54.761Z,3.85
2022-09-04T15:48:54.340Z,3.88
2022-09-04T15:51:33.299Z,4.53
2022-09-04T15:54:17.215Z,4.78
2022-09-04T15:57:07.275Z,4.63
2022-09-04T15:59:54.497Z,4.45
2022-09-04T16:02:37.462Z,3.72
2022-09-04T16:05:24.124Z,4.35
2022-09-04T16:08:05.392Z,4.05
2022-09-04T16:10:59.861Z,3.78
2022-09-04T16:13:30.177Z,4.03
2022-09-04T16:16:10.063Z,4.82
2022-09-04T16:18:41.361Z,3.47
2022-09-04T16:21:41.899Z,6.00
2022-09-04T16:24:23.379Z,3.88
2022-09-04T16:26:54.628Z,3.60
2022-09-04T16:29:27.963Z,3.78
2022-09-04T16:31:58.965Z,4.30
2022-09-04T16:34:36.167Z,3.97
2022-09-04T16:37:13.771Z,3.53
2022-09-04T16:39:52.248Z,3.30
2022-09-04T16:42:31.189Z,4.30
2022-09-04T16:45:15.445Z,3.97
2022-09-04T16:47:55.759Z,4.15
2022-09-04T16:50:52.954Z,4.53
2022-09-04T16:53:24.439Z,4.68
2022-09-04T16:56:08.501Z,4.07
2022-09-04T16:58:57.758Z,4.60
2022-09-04T17:01:30.419Z,4.45
2022-09-04T17:04:15.037Z,4.03
2022-09-04T17:07:03.967Z,4.90
2022-09-04T17:09:46.193Z,4.03
2022-09-04T17:12:31.152Z,3.92
2022-09-04T17:15:10.494Z,3.80
2022-09-04T17:17:44.348Z,3.80
2022-09-04T17:20:40.163Z,3.60
2022-09-04T17:29:01.748Z,3.78
2022-09-04T17:29:14.174Z,3.85
2022-09-04T17:29:41.569Z,3.72
2022-09-04T17:33:25.311Z,4.22
2022-09-04T17:40:35.957Z,3.20
2022-09-04T17:40:51.460Z,3.58
2022-09-04T17:41:38.080Z,3.20
2022-09-04T17:44:48.572Z,3.28
2022-09-04T17:47:43.936Z,2.97
2022-09-04T17:50:18.431Z,3.25
2022-09-04T17:53:04.954Z,3.08
2022-09-04T17:55:47.323Z,3.33
2022-09-04T17:58:26.965Z,2.70
2022-09-04T18:01:20.284Z,2.97
2022-09-04T18:04:38.672Z,2.97
2022-09-04T18:07:30.065Z,2.88
2022-09-04T18:10:25.078Z,2.85
2022-09-04T18:13:37.089Z,3.72
2022-09-04T18:16:27.964Z,3.50
2022-09-04T18:18:59.921Z,3.10
2022-09-04T18:21:33.240Z,2.92
2022-09-04T18:24:27.113Z,3.03
2022-09-04T18:27:05.223Z,2.88
2022-09-04T18:32:01.843Z,2.95
2022-09-04T18:37:21.497Z,2.42
2022-09-04T18:37:22.865Z,2.80
2022-09-04T18:39:14.961Z,2.60
2022-09-04T18:45:47.549Z,2.90
2022-09-04T18:50:51.992Z,2.38
2022-09-04T18:50:53.241Z,2.53
2022-09-04T18:51:20.611Z,2.38
2022-09-04T18:54:34.441Z,2.38
2022-09-04T18:57:48.647Z,2.92
2022-09-04T19:00:36.006Z,2.50
2022-09-04T19:03:22.755Z,3.08
2022-09-04T19:05:55.345Z,2.40
2022-09-04T19:08:31.387Z,2.88
2022-09-04T19:11:20.700Z,2.28
2022-09-04T19:14:10.452Z,3.13
2022-09-04T19:17:09.567Z,2.08
2022-09-04T19:19:48.992Z,2.40
2022-09-04T19:22:43.941Z,2.00
2022-09-04T19:25:17.647Z,2.22
2022-09-04T19:28:03.947Z,2.42
2022-09-04T19:30:46.970Z,2.30
2022-09-04T19:33:23.470Z,2.70
2022-09-04T19:36:13.383Z,2.28
2022-09-04T19:44:19.780Z,2.25
2022-09-04T19:46:02.730Z,2.28
2022-09-04T19:46:04.887Z,2.17
2022-09-04T19:47:48.653Z,2.38
2022-09-04T19:53:23.264Z,2.22
2022-09-04T19:53:39.055Z,2.13
2022-09-04T19:56:19.997Z,1.48
2022-09-04T19:58:58.046Z,2.08
2022-09-04T20:01:30.698Z,1.73
2022-09-04T20:04:12.250Z,2.15
2022-09-04T20:06:52.112Z,2.38
2022-09-04T20:09:43.454Z,2.13
2022-09-04T20:12:27.089Z,2.20
2022-09-04T20:15:19.378Z,2.17
2022-09-04T20:18:12.930Z,1.90
2022-09-04T20:21:14.920Z,2.03
2022-09-04T20:24:12.143Z,1.95
2022-09-04T20:26:48.345Z,1.80
2022-09-04T20:29:50.445Z,1.95
2022-09-04T20:32:57.561Z,1.63
2022-09-04T20:35:40.344Z,1.92
2022-09-04T20:38:23.139Z,1.95
2022-09-04T20:41:19.585Z,1.90
2022-09-04T20:44:08.998Z,1.60
2022-09-04T20:52:41.379Z,1.60
2022-09-04T20:52:53.160Z,1.50
2022-09-04T20:53:23.985Z,1.50
2022-09-04T20:56:50.688Z,1.60
2022-09-04T21:03:10.162Z,1.52
2022-09-04T21:03:21.750Z,1.63
2022-09-04T21:05:35.007Z,1.80
2022-09-04T21:08:14.723Z,1.58
2022-09-04T21:10:49.424Z,1.40
2022-09-04T21:13:39.189Z,1.55
2022-09-04T21:16:46.078Z,1.92
2022-09-04T21:20:00.879Z,1.90
2022-09-04T21:22:50.332Z,1.40
2022-09-04T21:25:26.371Z,2.15
2022-09-04T21:28:17.065Z,1.80
2022-09-04T21:31:02.085Z,1.52
2022-09-04T21:33:47.264Z,1.63
2022-09-04T21:36:55.888Z,1.77
2022-09-04T21:39:25.877Z,1.77
2022-09-04T21:42:19.788Z,1.40
2022-09-04T21:45:11.217Z,1.55
2022-09-04T21:47:47.599Z,1.40
2022-09-04T21:50:25.481Z,1.58
2022-09-04T21:53:01.665Z,1.38
2022-09-04T22:00:14.287Z,1.25
2022-09-04T22:02:28.229Z,1.38
2022-09-04T22:02:39.684Z,1.67
2022-09-04T22:04:56.965Z,1.20
2022-09-04T22:13:26.096Z,1.45
2022-09-04T22:17:06.999Z,1.50
2022-09-04T22:20:04.124Z,1.23
2022-09-04T22:22:52.617Z,1.40
2022-09-04T22:26:23.008Z,1.23
2022-09-04T22:29:39.759Z,1.30
2022-09-04T22:32:20.528Z,1.48
2022-09-04T22:35:21.156Z,1.25
2022-09-04T22:38:41.762Z,1.00
2022-09-04T22:41:26.453Z,1.20
2022-09-04T22:44:02.044Z,1.83
2022-09-04T22:46:46.908Z,1.25
2022-09-04T22:49:33.741Z,1.30
2022-09-04T22:52:24.900Z,1.20
2022-09-04T22:55:17.570Z,1.38
2022-09-04T22:58:10.347Z,1.27
2022-09-04T23:01:18.762Z,1.50
2022-09-04T23:04:07.340Z,1.15
2022-09-04T23:13:20.661Z,1.20
2022-09-04T23:13:50.371Z,1.50
2022-09-04T23:14:00.810Z,1.20
2022-09-04T23:16:29.025Z,1.10
2022-09-04T23:24:37.785Z,1.20
2022-09-04T23:26:42.872Z,1.10
2022-09-04T23:26:50.178Z,1.50
2022-09-04T23:28:09.155Z,1.40
2022-09-04T23:31:13.319Z,1.40
2022-09-04T23:34:13.454Z,1.20
2022-09-04T23:36:56.168Z,1.08
2022-09-04T23:39:57.036Z,1.10
2022-09-04T23:42:56.721Z,1.60
2022-09-04T23:46:01.299Z,1.13
2022-09-04T23:49:06.543Z,1.13
2022-09-04T23:51:42.813Z,1.17
2022-09-04T23:54:35.491Z,1.10
2022-09-04T23:57:27.116Z,1.20
